Time;durP1;ratioP1;P1;durP2;ratioP2;P2;SDS_P1;SDS_P2;PMS_P1;PMS_P2;Temp;Humidity;BMP_temperature;BMP_pressure;BME280_temperature;BME280_humidity;BME280_pressure;Samples;Min_cycle;Max_cycle;Signal;HPM_P1;HPM_P2
2021/11/18 00:01:17;;;;;;;22.40;13.80;;;;;;;10.97;52.83;100991.34;4473084;31;33176;-88
2021/11/18 00:03:47;;;;;;;21.77;13.98;;;;;;;10.97;52.91;100995.72;4473484;31;32267;-88
2021/11/18 00:06:16;;;;;;;25.65;14.95;;;;;;;11.01;52.70;100982.59;4457652;32;33605;-87
2021/11/18 00:08:45;;;;;;;22.98;13.40;;;;;;;10.85;52.91;100986.31;4457276;31;32974;-88
2021/11/18 00:11:18;;;;;;;27.62;15.45;;;;;;;11.02;52.50;100992.16;4473722;31;33096;-87
2021/11/18 00:13:48;;;;;;;;;;;;;;;10.79;53.10;100994.19;4461044;31;32111;-87
2021/11/18 00:16:20;;;;;;;25.00;14.87;;;;;;;10.90;52.84;100987.06;4460804;31;33062;-87
2021/11/18 00:18:48;;;;;;;26.20;13.90;;;;;;;10.92;52.73;100982.72;4460508;31;33165;-88
2021/11/18 00:21:25;;;;;;;23.45;14.25;;;;;;;10.94;52.54;100975.75;4460465;31;32764;-88
2021/11/18 00:24:04;;;;;;;24.45;14.48;;;;;;;10.62;53.25;100978.72;4462124;31;32301;-88
2021/11/18 00:26:33;;;;;;;23.08;14.32;;;;;;;11.06;52.16;100974.69;4460284;31;33002;-87
2021/11/18 00:29:02;;;;;;;24.48;13.23;;;;;;;10.81;52.65;100981.97;4466633;31;33087;-88
2021/11/18 00:31:35;;;;;;;24.98;13.90;;;;;;;10.81;52.64;100984.59;4460432;31;32971;-87
2021/11/18 00:34:06;;;;;;;25.37;14.38;;;;;;;10.75;52.78;100988.12;4460598;31;32465;-88
2021/11/18 00:36:35;;;;;;;22.15;12.95;;;;;;;10.85;52.52;100987.16;4472971;31;32491;-87
2021/11/18 00:39:06;;;;;;;23.95;15.02;;;;;;;10.89;52.45;100982.78;4472949;31;33060;-87
2021/11/18 00:41:34;;;;;;;26.37;14.65;;;;;;;10.86;52.58;100981.06;4460193;31;32973;-88
2021/11/18 00:44:06;;;;;;;23.08;13.10;;;;;;;11.05;52.19;100977.34;4488026;31;32954;-88
2021/11/18 00:46:34;;;;;;;23.67;13.80;;;;;;;10.95;52.29;100990.50;4473145;31;33334;-90
2021/11/18 00:49:03;;;;;;;20.88;13.55;;;;;;;11.06;51.97;100986.91;4473107;31;34406;-87
2021/11/18 00:51:32;;;;;;;22.62;12.93;;;;;;;11.10;51.87;100978.16;4483346;31;33017;-87
2021/11/18 00:54:05;;;;;;;23.45;13.88;;;;;;;10.85;52.43;100994.13;4474468;31;32406;-88
2021/11/18 00:56:37;;;;;;;24.00;14.40;;;;;;;10.71;52.86;100989.06;4483241;31;32868;-88
2021/11/18 00:59:07;;;;;;;23.73;14.38;;;;;;;11.07;52.07;100994.69;4474775;31;33674;-87
2021/11/18 01:01:42;;;;;;;26.48;13.13;;;;;;;10.94;52.42;100990.53;4463427;31;32804;-87
2021/11/18 01:04:15;;;;;;;22.73;14.20;;;;;;;10.93;52.60;100991.41;4488730;31;32794;-89
2021/11/18 01:06:45;;;;;;;25.33;14.45;;;;;;;10.84;52.64;100990.63;4488261;31;32542;-88
2021/11/18 01:09:15;;;;;;;24.67;13.15;;;;;;;10.86;52.72;100996.69;4475530;31;33294;-88
2021/11/18 01:11:45;;;;;;;;;;;;;;;11.04;52.06;100992.13;4489120;31;33310;-88
2021/11/18 01:14:18;;;;;;;24.52;13.30;;;;;;;10.81;52.77;100988.06;4476421;31;32053;-88
2021/11/18 01:16:48;;;;;;;26.60;14.32;;;;;;;10.95;52.38;100989.66;4487912;31;33575;-89
2021/11/18 01:19:18;;;;;;;;;;;;;;;10.92;52.64;100989.69;4488738;31;33235;-88
2021/11/18 01:21:49;;;;;;;26.27;13.98;;;;;;;10.96;52.48;100986.16;4475589;31;34749;-88
2021/11/18 01:24:20;;;;;;;26.45;13.62;;;;;;;10.97;52.40;100986.13;4500830;31;32477;-88
2021/11/18 01:26:50;;;;;;;24.48;14.65;;;;;;;10.81;52.85;100988.06;4472865;31;32408;-88
2021/11/18 01:29:22;;;;;;;22.30;13.52;;;;;;;10.71;53.02;100980.38;4485675;31;33958;-88
2021/11/18 01:31:52;;;;;;;25.08;13.93;;;;;;;10.68;53.30;100986.50;4486219;31;32662;-88
2021/11/18 01:34:27;;;;;;;24.33;13.82;;;;;;;10.90;52.67;100981.00;4489121;31;32511;-88
2021/11/18 01:36:57;;;;;;;24.70;15.40;;;;;;;10.82;52.88;100986.31;4475893;31;32694;-88
2021/11/18 01:39:26;;;;;;;21.90;13.70;;;;;;;10.89;52.67;100987.97;4475679;31;33212;-88
2021/11/18 01:41:59;;;;;;;20.40;12.48;;;;;;;10.84;52.67;100984.56;4475367;31;33487;-88
2021/11/18 01:44:40;;;;;;;22.08;13.52;;;;;;;10.87;52.61;100981.91;4472670;31;33021;-88
2021/11/18 01:47:11;;;;;;;23.73;12.93;;;;;;;10.92;52.39;100995.75;4472494;31;34053;-89
2021/11/18 01:49:44;;;;;;;21.25;12.68;;;;;;;10.79;52.73;100988.97;4472345;31;33865;-88
2021/11/18 01:52:14;;;;;;;20.30;12.20;;;;;;;10.85;52.52;100983.69;4459768;31;33137;-89
2021/11/18 01:54:44;;;;;;;21.92;12.70;;;;;;;10.99;52.24;100986.97;4472752;31;33497;-88
2021/11/18 01:57:16;;;;;;;22.33;12.68;;;;;;;10.68;53.00;100989.94;4459591;31;33574;-88
2021/11/18 01:59:46;;;;;;;19.77;11.52;;;;;;;10.68;53.18;100991.72;4472350;31;34627;-88
2021/11/18 02:02:20;;;;;;;20.92;12.95;;;;;;;10.64;53.22;100988.25;4472622;31;33734;-88
2021/11/18 02:05:34;;;;;;;20.83;12.32;;;;;;;10.50;53.73;100983.22;4474154;31;32653;-88
2021/11/18 02:08:06;;;;;;;20.88;12.48;;;;;;;10.56;53.58;100992.69;4472237;31;33217;-88
2021/11/18 02:10:40;;;;;;;21.67;12.90;;;;;;;10.63;53.42;100996.09;4472442;31;32918;-89
2021/11/18 02:13:11;;;;;;;19.80;11.65;;;;;;;10.67;53.33;100992.56;4459181;31;32899;-88
2021/11/18 02:15:47;;;;;;;21.40;12.52;;;;;;;10.55;53.68;100990.97;4459696;31;33216;-88
2021/11/18 02:18:22;;;;;;;20.65;11.88;;;;;;;10.37;54.33;100994.66;4484989;31;34245;-89
2021/11/18 02:21:01;;;;;;;19.25;12.07;;;;;;;10.36;54.22;101001.56;4459771;31;33719;-88
2021/11/18 02:23:35;;;;;;;21.55;12.40;;;;;;;10.61;53.61;100997.84;4473077;31;32847;-88
2021/11/18 02:26:05;;;;;;;18.15;10.57;;;;;;;10.58;53.55;100998.75;4473505;31;34277;-88
2021/11/18 02:28:37;;;;;;;20.15;11.38;;;;;;;10.72;53.28;100995.16;4450307;32;33044;-88
2021/11/18 02:31:16;;;;;;;20.92;12.00;;;;;;;10.68;53.40;100996.91;4472482;31;33384;-88
2021/11/18 02:33:48;;;;;;;20.30;11.27;;;;;;;10.77;53.13;100990.72;4473944;31;33224;-88
2021/11/18 02:36:20;;;;;;;20.65;10.95;;;;;;;10.63;53.57;100999.56;4474365;31;32364;-89
2021/11/18 02:38:48;;;;;;;23.12;11.50;;;;;;;10.73;53.13;100992.53;4461015;31;33981;-89
2021/11/18 02:41:19;;;;;;;18.87;10.65;;;;;;;10.67;53.33;100993.44;4473931;31;32842;-88
2021/11/18 02:43:50;;;;;;;18.35;10.73;;;;;;;10.46;53.98;100984.12;4487155;31;33374;-88
2021/11/18 02:46:22;;;;;;;16.42;9.75;;;;;;;10.63;53.81;100996.09;4502605;31;33425;-87
2021/11/18 02:48:55;;;;;;;19.50;10.20;;;;;;;10.47;54.16;100983.22;4489877;31;34102;-89
2021/11/18 02:51:24;;;;;;;16.85;9.90;;;;;;;10.57;53.99;100985.72;4489549;31;33817;-89
2021/11/18 02:53:58;;;;;;;17.15;9.63;;;;;;;10.59;54.12;100979.63;4490930;31;33969;-87
2021/11/18 02:56:29;;;;;;;17.02;9.02;;;;;;;10.43;54.49;100993.72;4464286;31;33461;-88
2021/11/18 02:58:59;;;;;;;15.75;9.35;;;;;;;10.60;53.98;100989.19;4489909;31;32701;-88
2021/11/18 03:01:39;;;;;;;15.80;9.57;;;;;;;10.53;54.22;100992.75;4478723;31;33890;-87
2021/11/18 03:04:09;;;;;;;16.30;9.50;;;;;;;10.46;54.60;100999.75;4489607;31;32776;-88
2021/11/18 03:06:39;;;;;;;20.70;9.48;;;;;;;11.00;53.14;101001.72;4476306;26;32510;-89
2021/11/18 03:09:11;;;;;;;16.15;9.43;;;;;;;10.93;53.23;100996.59;4398923;32;31545;-89
2021/11/18 03:11:40;;;;;;;15.15;9.20;;;;;;;10.96;53.11;101001.81;4399275;32;33609;-88
2021/11/18 03:14:09;;;;;;;18.12;9.70;;;;;;;10.68;53.86;100995.16;4412547;32;33952;-89
2021/11/18 03:16:54;;;;;;;14.80;8.48;;;;;;;10.84;53.57;101003.66;4425693;32;34364;-89
2021/11/18 03:19:28;;;;;;;16.35;8.98;;;;;;;10.80;53.61;100991.56;4412399;32;33733;-89
2021/11/18 03:21:58;;;;;;;14.93;9.02;;;;;;;10.73;53.92;101002.94;4412432;32;34370;-88
2021/11/18 03:24:27;;;;;;;18.17;9.73;;;;;;;10.71;54.05;100999.47;4411657;32;32740;-88
2021/11/18 03:26:56;;;;;;;15.48;9.13;;;;;;;10.89;53.61;101000.13;4411836;32;33478;-89
2021/11/18 03:29:27;;;;;;;14.20;8.77;;;;;;;10.92;53.56;101000.97;4399248;32;34376;-89
2021/11/18 03:31:59;;;;;;;15.20;9.52;;;;;;;10.62;54.44;100995.25;4399601;32;33501;-88
2021/11/18 03:34:31;;;;;;;15.75;8.88;;;;;;;10.85;53.89;100989.75;4400206;32;32438;-89
2021/11/18 03:37:03;;;;;;;15.65;9.93;;;;;;;10.81;54.12;100992.41;4412277;32;32702;-89
2021/11/18 03:39:51;;;;;;;17.58;10.70;;;;;;;10.65;54.57;100995.22;4416250;32;33889;-89
2021/11/18 03:42:24;;;;;;;16.12;8.70;;;;;;;10.52;54.95;100996.22;4412169;32;32856;-88
2021/11/18 03:44:58;;;;;;;18.17;10.32;;;;;;;10.73;54.51;100994.25;4424824;32;34368;-89
2021/11/18 03:47:28;;;;;;;15.77;9.27;;;;;;;10.76;54.39;100999.44;4420416;32;33332;-89
2021/11/18 03:49:57;;;;;;;16.85;9.70;;;;;;;11.08;53.55;101001.66;4411899;32;32807;-89
2021/11/18 03:52:29;;;;;;;17.05;10.65;;;;;;;10.74;54.39;101001.19;4399695;32;32978;-89
2021/11/18 03:54:59;;;;;;;16.73;9.65;;;;;;;10.76;54.58;101002.06;4424312;32;33677;-88
2021/11/18 03:57:28;;;;;;;15.50;9.40;;;;;;;10.80;54.33;101006.34;4412361;32;32669;-89
2021/11/18 04:00:09;;;;;;;15.60;9.43;;;;;;;10.74;54.51;101003.78;4414623;32;34063;-89
2021/11/18 04:02:43;;;;;;;16.60;10.10;;;;;;;10.77;54.35;101006.34;4412166;32;33025;-88
2021/11/18 04:05:14;;;;;;;16.48;9.70;;;;;;;10.82;54.34;101007.16;4411862;32;32990;-88
2021/11/18 04:07:43;;;;;;;15.98;9.52;;;;;;;10.60;54.87;101007.41;4419537;32;32987;-88
2021/11/18 04:10:23;;;;;;;14.38;9.15;;;;;;;10.58;54.98;101016.13;4422137;32;33045;-88
2021/11/18 04:12:53;;;;;;;15.00;9.05;;;;;;;10.50;55.18;101013.59;4427004;32;33241;-89
2021/11/18 04:15:24;;;;;;;16.17;9.15;;;;;;;10.41;55.48;101009.38;4434122;32;34520;-89
2021/11/18 04:18:01;;;;;;;14.13;7.93;;;;;;;10.60;54.91;101010.03;4427880;32;32095;-88
2021/11/18 04:20:31;;;;;;;16.23;9.48;;;;;;;10.79;54.46;101009.81;4409240;32;33744;-89
2021/11/18 04:23:04;;;;;;;15.52;8.85;;;;;;;10.68;54.74;101012.56;4426616;32;33299;-88
2021/11/18 04:25:38;;;;;;;14.25;9.00;;;;;;;10.63;54.78;101009.97;4423307;32;32793;-89
2021/11/18 04:28:09;;;;;;;16.10;9.88;;;;;;;10.81;54.41;101008.94;4427341;32;31973;-89
2021/11/18 04:30:46;;;;;;;17.50;9.27;;;;;;;10.67;54.75;101014.28;4423433;32;32840;-89
2021/11/18 04:33:22;;;;;;;15.02;9.00;;;;;;;10.74;54.58;101016.81;4439276;32;33340;-88
2021/11/18 04:35:54;;;;;;;15.95;8.75;;;;;;;10.88;54.20;101020.16;4437603;32;33445;-89
2021/11/18 04:38:25;;;;;;;;;;;;;;;10.76;54.35;101020.28;4439634;32;33469;-88
2021/11/18 04:40:56;;;;;;;13.25;8.63;;;;;;;10.55;54.99;101027.44;4415063;32;33562;-89
2021/11/18 04:43:26;;;;;;;13.77;8.50;;;;;;;10.78;54.36;101026.34;4426652;32;33084;-89
2021/11/18 04:45:56;;;;;;;14.70;9.05;;;;;;;10.71;54.46;101028.16;4414055;32;33618;-88
2021/11/18 04:48:27;;;;;;;13.77;8.25;;;;;;;10.54;54.82;101033.53;4426642;32;33730;-88
2021/11/18 04:50:57;;;;;;;14.02;8.00;;;;;;;10.67;54.49;101036.87;4438231;32;33627;-89
2021/11/18 04:53:28;;;;;;;13.95;8.48;;;;;;;10.64;54.71;101042.16;4427170;32;33816;-89
2021/11/18 04:55:59;;;;;;;14.43;8.98;;;;;;;10.66;54.56;101043.84;4427215;32;33772;-89
2021/11/18 04:58:38;;;;;;;13.43;8.77;;;;;;;10.79;54.09;101036.75;4415782;32;33277;-89
2021/11/18 05:01:28;;;;;;;13.05;7.90;;;;;;;10.78;54.26;101047.19;4418505;32;33230;-88
2021/11/18 05:03:59;;;;;;;13.85;8.10;;;;;;;10.60;54.59;101049.12;4427439;32;35093;-87
2021/11/18 05:06:28;;;;;;;31.62;10.68;;;;;;;10.65;54.57;101052.56;4414234;32;33344;-89
2021/11/18 05:08:58;;;;;;;20.02;9.38;;;;;;;10.69;54.53;101054.25;4440201;32;34554;-88
2021/11/18 05:11:27;;;;;;;14.85;8.88;;;;;;;10.63;54.77;101061.25;4413815;32;32370;-88
2021/11/18 05:13:55;;;;;;;14.63;8.45;;;;;;;10.67;54.78;101058.59;4412792;32;33064;-88
2021/11/18 05:16:25;;;;;;;13.98;8.38;;;;;;;10.95;53.87;101062.66;4413651;32;32719;-88
2021/11/18 05:18:54;;;;;;;12.82;8.15;;;;;;;10.86;53.99;101058.41;4413670;32;34570;-88
2021/11/18 05:21:25;;;;;;;13.98;8.88;;;;;;;10.90;53.87;101064.44;4413737;32;33466;-87
2021/11/18 05:23:56;;;;;;;14.85;8.50;;;;;;;10.66;54.63;101061.22;4426664;32;33076;-88
2021/11/18 05:26:26;;;;;;;15.65;8.98;;;;;;;10.68;54.45;101060.31;4428815;32;33769;-87
2021/11/18 05:28:55;;;;;;;13.40;8.43;;;;;;;10.56;54.81;101065.66;4415050;32;31908;-88
2021/11/18 05:31:27;;;;;;;14.87;9.00;;;;;;;10.49;55.09;101066.59;4427037;32;33806;-89
2021/11/18 05:33:58;;;;;;;20.48;10.15;;;;;;;10.61;54.78;101065.59;4419978;32;32801;-86
2021/11/18 05:36:29;;;;;;;14.10;8.77;;;;;;;10.19;55.94;101071.16;4415868;32;32602;-88
2021/11/18 05:38:59;;;;;;;14.77;8.70;;;;;;;10.28;55.56;101075.47;4426145;32;32405;-88
2021/11/18 05:41:39;;;;;;;15.13;9.20;;;;;;;10.44;55.21;101071.84;4415969;32;33071;-88
2021/11/18 05:44:09;;;;;;;14.80;8.15;;;;;;;10.11;56.13;101076.44;4423761;32;33146;-88
2021/11/18 05:46:43;;;;;;;;;;;;;;;10.07;56.36;101076.50;4435787;32;33730;-88
2021/11/18 05:49:20;;;;;;;12.57;7.72;;;;;;;10.05;56.42;101076.50;4432960;32;33194;-87
2021/11/18 05:51:48;;;;;;;18.23;8.57;;;;;;;10.06;56.36;101079.97;4412365;32;33086;-87
2021/11/18 05:54:18;;;;;;;14.57;8.37;;;;;;;10.36;55.39;101077.13;4424859;32;34051;-87
2021/11/18 05:56:46;;;;;;;15.50;8.43;;;;;;;10.39;55.30;101075.38;4412536;32;32736;-87
2021/11/18 05:59:15;;;;;;;13.80;8.10;;;;;;;10.38;55.24;101081.47;4412957;32;32554;-88
2021/11/18 06:01:44;;;;;;;12.73;7.75;;;;;;;10.55;54.63;101083.94;4425423;32;33704;-87
2021/11/18 06:04:13;;;;;;;11.98;7.53;;;;;;;10.64;54.23;101084.69;4412664;32;32972;-87
2021/11/18 06:06:42;;;;;;;15.73;8.15;;;;;;;10.62;54.30;101093.41;4424899;32;32983;-88
2021/11/18 06:09:10;;;;;;;15.35;8.25;;;;;;;10.80;53.75;101100.19;4412506;32;33562;-87
2021/11/18 06:11:42;;;;;;;12.15;7.80;;;;;;;10.81;53.69;101101.91;4425095;32;33202;-87
2021/11/18 06:14:11;;;;;;;13.55;7.90;;;;;;;10.71;53.94;101098.53;4399338;32;33787;-87
2021/11/18 06:16:41;;;;;;;12.37;7.33;;;;;;;10.67;54.04;101102.91;4412296;32;32597;-87
2021/11/18 06:19:09;;;;;;;13.75;7.70;;;;;;;10.76;53.86;101109.78;4424666;32;32184;-86
2021/11/18 06:21:42;;;;;;;16.37;8.35;;;;;;;10.79;53.85;101116.72;4412645;32;33220;-88
2021/11/18 06:24:12;;;;;;;14.35;8.20;;;;;;;10.85;53.54;101116.66;4412218;32;32440;-87
2021/11/18 06:26:42;;;;;;;13.55;7.82;;;;;;;10.62;54.18;101102.13;4424663;32;34286;-88
2021/11/18 06:29:12;;;;;;;14.15;8.38;;;;;;;10.58;54.29;101110.81;4411930;32;33417;-84
2021/11/18 06:31:41;;;;;;;14.00;7.45;;;;;;;10.69;53.98;101110.72;4411847;32;32839;-84
2021/11/18 06:34:11;;;;;;;13.45;7.50;;;;;;;10.68;54.11;101117.66;4425181;32;34255;-83
2021/11/18 06:36:43;;;;;;;14.00;8.88;;;;;;;10.63;54.18;101127.28;4425015;32;32940;-83
2021/11/18 06:39:13;;;;;;;14.40;8.77;;;;;;;10.70;54.03;101128.06;4424248;32;32230;-87
2021/11/18 06:41:43;;;;;;;11.73;7.60;;;;;;;10.63;54.23;101140.31;4412204;32;32874;-84
2021/11/18 06:44:12;;;;;;;14.87;9.88;;;;;;;10.79;53.89;101145.37;4411655;32;33149;-82
2021/11/18 06:46:43;;;;;;;21.62;15.13;;;;;;;10.77;53.98;101147.12;4423938;32;34100;-84
2021/11/18 06:49:13;;;;;;;16.23;9.20;;;;;;;10.73;54.01;101143.72;4398429;32;31552;-84
2021/11/18 06:51:47;;;;;;;14.75;8.98;;;;;;;10.90;53.54;101143.53;4399222;32;33237;-85
2021/11/18 06:54:18;;;;;;;14.15;8.48;;;;;;;10.82;53.66;101151.44;4422904;32;34200;-84
2021/11/18 06:56:48;;;;;;;13.73;8.10;;;;;;;10.72;54.09;101155.00;4439773;32;34589;-83
2021/11/18 06:59:18;;;;;;;20.42;8.82;;;;;;;10.69;54.02;101150.69;4423030;32;32143;-85
2021/11/18 07:01:46;;;;;;;12.37;7.43;;;;;;;10.62;54.41;101143.81;4421879;32;33586;-84
2021/11/18 07:04:15;;;;;;;14.13;7.82;;;;;;;10.70;54.07;101143.72;4415199;32;33614;-84
2021/11/18 07:06:44;;;;;;;14.60;8.98;;;;;;;10.64;54.57;101138.59;4411892;32;32822;-84
2021/11/18 07:09:16;;;;;;;12.88;7.28;;;;;;;10.64;54.19;101149.84;4437412;32;34355;-85
2021/11/18 07:11:47;;;;;;;13.00;7.55;;;;;;;10.89;53.43;101153.97;4425120;32;34839;-85
2021/11/18 07:14:16;;;;;;;13.43;8.15;;;;;;;10.94;53.23;101157.41;4409274;32;33689;-85
2021/11/18 07:16:44;;;;;;;12.45;8.23;;;;;;;10.87;53.30;101159.22;4423666;32;33376;-85
2021/11/18 07:19:18;;;;;;;14.73;8.70;;;;;;;10.69;54.03;101168.09;4423437;32;32789;-85
2021/11/18 07:21:45;;;;;;;17.67;8.18;;;;;;;10.48;54.54;101176.94;4398164;32;32926;-85
2021/11/18 07:24:16;;;;;;;12.45;7.85;;;;;;;10.49;54.53;101176.91;4410456;32;33388;-85
2021/11/18 07:26:45;;;;;;;14.85;8.63;;;;;;;10.78;53.90;101174.94;4410918;32;33716;-85
2021/11/18 07:29:14;;;;;;;12.15;7.43;;;;;;;10.66;54.07;101171.56;4426224;32;32653;-85
2021/11/18 07:31:42;;;;;;;15.48;8.10;;;;;;;10.55;54.43;101182.97;4413591;32;33825;-84
2021/11/18 07:34:11;;;;;;;25.35;14.52;;;;;;;10.58;54.21;101170.75;4426277;32;33820;-84
2021/11/18 07:36:41;;;;;;;16.42;10.02;;;;;;;10.57;54.46;101181.19;4425526;32;32679;-85
2021/11/18 07:39:11;;;;;;;14.40;7.70;;;;;;;10.68;53.98;101179.37;4426045;32;32285;-85
2021/11/18 07:41:42;;;;;;;13.15;9.35;;;;;;;10.76;53.71;101184.53;4426346;32;34139;-84
2021/11/18 07:44:12;;;;;;;11.70;7.37;;;;;;;10.93;53.51;101187.84;4425801;32;33310;-84
2021/11/18 07:47:11;;;;;;;19.50;13.50;;;;;;;10.92;53.42;101193.09;4431066;32;33642;-86
2021/11/18 07:49:40;;;;;;;20.30;9.73;;;;;;;11.00;53.17;101194.72;4426114;32;33650;-85
2021/11/18 07:52:12;;;;;;;;;;;;;;;11.01;53.07;101193.00;4414661;32;33251;-84
2021/11/18 07:54:40;;;;;;;14.85;7.93;;;;;;;10.98;53.48;101193.00;4415625;32;33300;-83
2021/11/18 07:57:09;;;;;;;15.25;8.50;;;;;;;11.23;52.52;101196.22;4417758;32;32716;-85
2021/11/18 07:59:39;;;;;;;15.02;8.80;;;;;;;10.86;53.46;101200.06;4427857;32;33259;-83
2021/11/18 08:02:08;;;;;;;14.50;7.53;;;;;;;11.00;53.06;101205.16;4425929;32;34279;-85
2021/11/18 08:04:38;;;;;;;16.67;8.75;;;;;;;10.85;53.44;101200.94;4426550;32;33408;-84
2021/11/18 08:07:07;;;;;;;16.42;8.13;;;;;;;11.04;52.90;101195.56;4400568;32;32584;-86
2021/11/18 08:09:35;;;;;;;15.30;8.02;;;;;;;11.10;52.87;101203.34;4413204;32;32419;-85
2021/11/18 08:12:05;;;;;;;20.12;7.43;;;;;;;11.10;52.68;101203.34;4413019;32;33482;-85
2021/11/18 08:14:34;;;;;;;18.02;7.72;;;;;;;11.18;52.33;101217.16;4438807;32;33303;-84
2021/11/18 08:17:02;;;;;;;14.80;7.53;;;;;;;11.53;51.42;101209.84;4413479;32;32994;-85
2021/11/18 08:19:31;;;;;;;13.45;6.87;;;;;;;11.67;50.93;101207.06;4400344;32;32286;-85
2021/11/18 08:22:04;;;;;;;13.85;7.57;;;;;;;11.87;50.48;101204.19;4422965;32;33429;-85
2021/11/18 08:24:33;;;;;;;;;;;;;;;12.13;49.81;101198.66;4426410;32;34022;-85
2021/11/18 08:27:02;;;;;;;12.90;7.25;;;;;;;12.46;49.06;101191.22;4420349;32;32963;-85
2021/11/18 08:29:33;;;;;;;13.43;7.25;;;;;;;12.24;49.52;101203.72;4415003;32;32164;-85
2021/11/18 08:32:04;;;;;;;12.35;7.12;;;;;;;12.42;49.00;101204.34;4410838;32;34642;-85
2021/11/18 08:34:33;;;;;;;;;;;;;;;12.29;49.11;101214.13;4399618;32;34943;-85
2021/11/18 08:37:03;;;;;;;17.58;8.35;;;;;;;12.38;49.05;101211.38;4413141;32;33996;-85
2021/11/18 08:39:34;;;;;;;13.00;7.80;;;;;;;12.27;49.11;101216.78;4422718;32;34084;-85
2021/11/18 08:42:08;;;;;;;14.25;7.78;;;;;;;11.99;49.66;101211.94;4414163;32;33777;-86
2021/11/18 08:44:38;;;;;;;13.27;7.78;;;;;;;11.81;50.28;101223.44;4413430;32;34667;-85
2021/11/18 08:47:09;;;;;;;15.38;8.65;;;;;;;11.93;50.19;101211.97;4399207;32;32615;-85
2021/11/18 08:49:38;;;;;;;15.35;8.50;;;;;;;12.19;49.65;101222.09;4407684;32;33773;-85
2021/11/18 08:52:09;;;;;;;13.75;7.90;;;;;;;11.74;50.79;101224.41;4422925;32;33867;-85
2021/11/18 08:54:45;;;;;;;19.33;7.70;;;;;;;11.78;50.67;101220.88;4423552;32;32913;-85
2021/11/18 08:57:15;;;;;;;13.27;8.20;;;;;;;11.70;50.93;101235.75;4411008;32;34235;-85
2021/11/18 08:59:49;;;;;;;16.45;8.07;;;;;;;11.93;50.60;101225.03;4399654;32;33673;-86
2021/11/18 09:02:20;;;;;;;;;;;;;;;11.49;51.73;101231.66;4413967;32;32347;-86
2021/11/18 09:04:53;;;;;;;14.20;7.15;;;;;;;11.68;51.32;101227.06;4412973;32;32852;-86
2021/11/18 09:07:24;;;;;;;14.00;8.45;;;;;;;11.79;51.01;101232.16;4436767;32;33836;-87
2021/11/18 09:09:53;;;;;;;12.90;7.45;;;;;;;11.51;51.41;101233.34;4413524;32;32239;-86
2021/11/18 09:12:26;;;;;;;15.40;7.40;;;;;;;11.59;51.49;101219.34;4422601;32;33975;-87
2021/11/18 09:14:55;;;;;;;12.75;7.60;;;;;;;11.90;50.79;101226.81;4418145;32;32822;-87
2021/11/18 09:17:26;;;;;;;12.30;7.90;;;;;;;11.96;50.48;101226.75;4408361;32;32719;-87
2021/11/18 09:19:59;;;;;;;11.02;7.75;;;;;;;12.04;50.37;101237.97;4414815;32;32589;-86
2021/11/18 09:22:29;;;;;;;12.27;7.10;;;;;;;11.91;50.63;101229.38;4438736;32;34296;-87
2021/11/18 09:25:04;;;;;;;13.60;7.50;;;;;;;12.05;50.19;101228.41;4426672;32;33816;-87
2021/11/18 09:27:46;;;;;;;12.13;7.40;;;;;;;12.07;50.18;101230.09;4413870;32;32533;-87
2021/11/18 09:30:19;;;;;;;14.40;7.90;;;;;;;12.13;50.04;101235.25;4426004;32;31773;-87
2021/11/18 09:32:48;;;;;;;13.32;8.00;;;;;;;11.90;50.82;101235.53;4426098;32;32834;-87
2021/11/18 09:35:22;;;;;;;11.57;7.97;;;;;;;11.78;51.02;101246.97;4426035;32;33337;-87
2021/11/18 09:37:50;;;;;;;11.50;7.62;;;;;;;11.90;50.77;101248.56;4412092;32;33341;-87
2021/11/18 09:40:24;;;;;;;14.65;7.93;;;;;;;11.90;50.73;101253.78;4424723;32;32848;-88
2021/11/18 09:43:21;;;;;;;14.77;7.35;;;;;;;12.01;50.08;101257.16;4426820;32;33678;-87
2021/11/18 09:46:28;;;;;;;11.27;7.32;;;;;;;12.22;49.67;101242.09;4418679;32;33101;-88
2021/11/18 09:49:22;;;;;;;11.02;7.43;;;;;;;12.49;48.67;101242.59;4422906;32;32598;-87
2021/11/18 09:51:58;;;;;;;11.85;6.60;;;;;;;12.52;48.34;101242.53;4421955;32;32344;-88
2021/11/18 09:54:56;;;;;;;12.32;5.47;;;;;;;12.61;48.21;101245.00;4441129;32;32767;-87
2021/11/18 09:58:05;;;;;;;11.25;6.18;;;;;;;12.58;47.16;101245.06;4438220;32;34324;-87
2021/11/18 10:00:39;;;;;;;13.32;7.32;;;;;;;13.24;46.23;101240.47;4452901;32;33878;-87
2021/11/18 10:03:32;;;;;;;13.62;7.90;;;;;;;13.46;46.09;101230.50;4410562;32;32589;-87
2021/11/18 10:06:22;;;;;;;13.05;7.30;;;;;;;13.34;46.17;101243.78;4410573;32;32811;-86
2021/11/18 10:09:07;;;;;;;12.27;7.72;;;;;;;13.32;46.59;101238.59;4423139;32;33987;-85
2021/11/18 10:11:50;;;;;;;14.82;8.25;;;;;;;13.25;46.54;101239.56;4422529;32;32673;-88
2021/11/18 10:14:47;;;;;;;12.48;7.82;;;;;;;13.23;46.22;101232.66;4409786;32;33673;-87
2021/11/18 10:17:24;;;;;;;10.57;7.20;;;;;;;13.02;46.60;101238.22;4396974;32;34173;-86
2021/11/18 10:20:04;;;;;;;11.23;7.22;;;;;;;13.59;45.32;101233.75;4410652;32;33090;-84
2021/11/18 10:22:36;;;;;;;12.27;7.43;;;;;;;13.26;46.17;101236.06;4409565;32;33053;-85
2021/11/18 10:25:11;;;;;;;13.00;8.60;;;;;;;13.29;46.09;101235.16;4412319;32;34232;-85
2021/11/18 10:27:43;;;;;;;11.82;7.68;;;;;;;13.47;45.69;101226.16;4422212;32;34585;-85
2021/11/18 10:30:34;;;;;;;18.25;8.57;;;;;;;13.34;45.99;101221.09;4416296;32;33899;-87
2021/11/18 10:33:12;;;;;;;12.13;7.82;;;;;;;13.56;45.73;101228.59;4421505;32;33781;-86
2021/11/18 10:35:54;;;;;;;11.48;7.85;;;;;;;13.18;46.28;101230.97;4419171;32;33213;-86
2021/11/18 10:38:26;;;;;;;11.07;6.78;;;;;;;13.74;45.24;101218.62;4439552;32;33129;-87
2021/11/18 10:41:23;;;;;;;11.93;6.03;;;;;;;14.09;44.05;101228.34;4425546;32;34549;-87
2021/11/18 10:44:20;;;;;;;9.75;6.03;;;;;;;14.00;42.71;101218.94;4415291;32;33157;-89
2021/11/18 10:46:55;;;;;;;13.05;6.62;;;;;;;14.07;42.63;101213.56;4422697;32;32765;-89
2021/11/18 10:49:56;;;;;;;11.95;6.30;;;;;;;14.24;42.72;101202.69;4423723;32;33685;-89
2021/11/18 10:52:45;;;;;;;12.15;7.20;;;;;;;14.78;41.35;101214.56;4421229;32;33989;-91
2021/11/18 10:55:37;;;;;;;11.30;6.75;;;;;;;14.90;40.81;101219.50;4419217;32;33968;-89
2021/11/18 10:58:14;;;;;;;11.30;6.90;;;;;;;14.74;41.96;101212.91;4427931;32;32057;-90
2021/11/18 11:00:52;;;;;;;14.30;7.20;;;;;;;15.26;41.02;101206.31;4411801;32;33069;-90
2021/11/18 11:03:43;;;;;;;15.43;7.37;;;;;;;15.41;40.30;101212.03;4400611;32;34289;-90
2021/11/18 11:06:26;;;;;;;11.70;6.57;;;;;;;15.78;38.87;101211.88;4400531;32;33738;-89
2021/11/18 11:09:04;;;;;;;13.02;7.65;;;;;;;15.90;38.98;101204.56;4412156;32;33250;-89
2021/11/18 11:11:56;;;;;;;27.30;18.92;;;;;;;16.00;38.50;101206.84;4418788;32;32850;-87
2021/11/18 11:14:53;;;;;;;17.90;7.20;;;;;;;16.17;37.87;101206.34;4426224;32;34260;-86
2021/11/18 11:17:40;;;;;;;13.50;6.32;;;;;;;16.18;37.68;101208.06;4436194;32;33515;-86
2021/11/18 11:20:25;;;;;;;9.02;6.15;;;;;;;16.15;37.89;101204.66;4424650;32;32690;-86
2021/11/18 11:23:01;;;;;;;13.88;5.93;;;;;;;16.34;37.51;101210.22;4427181;32;34267;-87
2021/11/18 11:25:32;;;;;;;13.52;6.30;;;;;;;16.11;37.47;101197.78;4428937;32;33942;-86
2021/11/18 11:28:18;;;;;;;18.75;9.48;;;;;;;16.38;37.30;101201.34;4426443;32;33011;-89
2021/11/18 11:31:00;;;;;;;11.70;7.53;;;;;;;15.96;37.78;101204.38;4424127;32;32677;-89
2021/11/18 11:33:38;;;;;;;14.93;6.70;;;;;;;15.36;38.88;101202.53;4432037;32;34343;-90
2021/11/18 11:36:27;;;;;;;11.40;6.07;;;;;;;15.34;39.03;101206.97;4416608;32;32518;-90
2021/11/18 11:39:08;;;;;;;12.05;6.20;;;;;;;15.43;39.09;101205.00;4435909;32;33016;-89
2021/11/18 11:41:44;;;;;;;12.50;6.50;;;;;;;15.20;39.80;101201.22;4426614;32;32599;-89
2021/11/18 11:44:18;;;;;;;12.73;5.97;;;;;;;14.82;40.23;101197.84;4412855;32;32987;-89
2021/11/18 11:47:02;;;;;;;12.13;5.47;;;;;;;14.84;40.24;101191.66;4425284;32;33002;-90